sensor_id;sensor_type;location;lat;lon;timestamp;pressure;altitude;pressure_sealevel;temperature;humidity
64610;BME280;51019;46.090;6.350;2023-08-31T00:01:11;96295.56;;;14.46;100.00
64610;BME280;51019;46.090;6.350;2023-08-31T00:03:39;96327.44;;;14.76;100.00
64610;BME280;51019;46.090;6.350;2023-08-31T00:06:06;96329.25;;;14.67;100.00
64610;BME280;51019;46.090;6.350;2023-08-31T00:08:36;96327.66;;;14.66;100.00
64610;BME280;51019;46.090;6.350;2023-08-31T00:11:03;96334.56;;;14.90;100.00
64610;BME280;51019;46.090;6.350;2023-08-31T00:13:31;96330.53;;;15.02;100.00
64610;BME280;51019;46.090;6.350;2023-08-31T00:16:00;96333.09;;;14.65;100.00
64610;BME280;51019;46.090;6.350;2023-08-31T00:18:27;96339.56;;;13.99;100.00
64610;BME280;51019;46.090;6.350;2023-08-31T00:20:54;96287.13;;;13.49;100.00
64610;BME280;51019;46.090;6.350;2023-08-31T00:23:21;96343.44;;;14.11;100.00
64610;BME280;51019;46.090;6.350;2023-08-31T00:25:51;96341.63;;;14.20;100.00
64610;BME280;51019;46.090;6.350;2023-08-31T00:28:19;96334.19;;;14.31;100.00
64610;BME280;51019;46.090;6.350;2023-08-31T00:30:47;96339.25;;;14.80;100.00
64610;BME280;51019;46.090;6.350;2023-08-31T00:33:14;96299.75;;;14.72;100.00
64610;BME280;51019;46.090;6.350;2023-08-31T00:35:42;96333.50;;;15.07;100.00
64610;BME280;51019;46.090;6.350;2023-08-31T00:38:09;96330.50;;;15.10;100.00
64610;BME280;51019;46.090;6.350;2023-08-31T00:40:39;96329.97;;;15.15;100.00
64610;BME280;51019;46.090;6.350;2023-08-31T00:43:10;96309.41;;;15.10;100.00
64610;BME280;51019;46.090;6.350;2023-08-31T00:45:37;96286.50;;;15.25;100.00
64610;BME280;51019;46.090;6.350;2023-08-31T00:48:06;96254.50;;;15.06;100.00
64610;BME280;51019;46.090;6.350;2023-08-31T00:50:34;96309.72;;;15.53;100.00
64610;BME280;51019;46.090;6.350;2023-08-31T00:53:02;96311.78;;;15.66;100.00
64610;BME280;51019;46.090;6.350;2023-08-31T00:55:30;96312.22;;;15.69;100.00
64610;BME280;51019;46.090;6.350;2023-08-31T00:57:58;96313.31;;;15.60;100.00
64610;BME280;51019;46.090;6.350;2023-08-31T01:00:37;96316.59;;;15.62;100.00
64610;BME280;51019;46.090;6.350;2023-08-31T01:03:12;96310.22;;;15.71;100.00
64610;BME280;51019;46.090;6.350;2023-08-31T01:05:44;96291.56;;;15.50;100.00
64610;BME280;51019;46.090;6.350;2023-08-31T01:08:24;96306.84;;;15.40;100.00
64610;BME280;51019;46.090;6.350;2023-08-31T01:11:00;96307.38;;;15.35;100.00
64610;BME280;51019;46.090;6.350;2023-08-31T01:13:31;96309.63;;;15.23;100.00
64610;BME280;51019;46.090;6.350;2023-08-31T01:16:05;96303.13;;;15.34;100.00
64610;BME280;51019;46.090;6.350;2023-08-31T01:18:36;96280.22;;;15.26;100.00
64610;BME280;51019;46.090;6.350;2023-08-31T01:21:10;96311.44;;;15.46;100.00
64610;BME280;51019;46.090;6.350;2023-08-31T01:23:53;96326.00;;;15.42;100.00
64610;BME280;51019;46.090;6.350;2023-08-31T01:26:20;96318.84;;;15.27;100.00
64610;BME280;51019;46.090;6.350;2023-08-31T01:28:48;96312.56;;;15.06;100.00
64610;BME280;51019;46.090;6.350;2023-08-31T01:31:16;96315.72;;;15.24;100.00
64610;BME280;51019;46.090;6.350;2023-08-31T01:33:43;96310.31;;;14.95;100.00
64610;BME280;51019;46.090;6.350;2023-08-31T01:36:16;96316.34;;;15.26;100.00
64610;BME280;51019;46.090;6.350;2023-08-31T01:38:50;96332.63;;;15.60;100.00
64610;BME280;51019;46.090;6.350;2023-08-31T01:41:22;96324.69;;;15.60;100.00
64610;BME280;51019;46.090;6.350;2023-08-31T01:43:51;96328.97;;;15.61;100.00
64610;BME280;51019;46.090;6.350;2023-08-31T01:46:19;96326.50;;;15.60;100.00
64610;BME280;51019;46.090;6.350;2023-08-31T01:48:46;96326.63;;;15.44;100.00
64610;BME280;51019;46.090;6.350;2023-08-31T01:51:13;96319.97;;;15.56;100.00
64610;BME280;51019;46.090;6.350;2023-08-31T01:53:40;96322.34;;;15.43;100.00
64610;BME280;51019;46.090;6.350;2023-08-31T01:56:07;96319.25;;;15.62;100.00
64610;BME280;51019;46.090;6.350;2023-08-31T01:58:36;96313.13;;;15.61;100.00
64610;BME280;51019;46.090;6.350;2023-08-31T02:01:03;96317.59;;;15.38;100.00
64610;BME280;51019;46.090;6.350;2023-08-31T02:03:30;96324.16;;;15.42;100.00
64610;BME280;51019;46.090;6.350;2023-08-31T02:05:57;96321.28;;;15.52;100.00
64610;BME280;51019;46.090;6.350;2023-08-31T02:08:24;96317.50;;;15.32;100.00
64610;BME280;51019;46.090;6.350;2023-08-31T02:10:51;96314.50;;;15.35;100.00
64610;BME280;51019;46.090;6.350;2023-08-31T02:13:19;96320.22;;;15.61;100.00
64610;BME280;51019;46.090;6.350;2023-08-31T02:15:51;96312.06;;;15.48;100.00
64610;BME280;51019;46.090;6.350;2023-08-31T02:18:18;96307.03;;;15.61;100.00
64610;BME280;51019;46.090;6.350;2023-08-31T02:20:45;96307.97;;;15.45;100.00
64610;BME280;51019;46.090;6.350;2023-08-31T02:23:12;96315.28;;;15.35;100.00
64610;BME280;51019;46.090;6.350;2023-08-31T02:25:39;96309.50;;;15.40;100.00
64610;BME280;51019;46.090;6.350;2023-08-31T02:28:06;96312.88;;;15.48;100.00
64610;BME280;51019;46.090;6.350;2023-08-31T02:30:33;96316.31;;;15.11;100.00
64610;BME280;51019;46.090;6.350;2023-08-31T02:33:03;96326.16;;;15.17;100.00
64610;BME280;51019;46.090;6.350;2023-08-31T02:35:30;96311.50;;;15.15;100.00
64610;BME280;51019;46.090;6.350;2023-08-31T02:37:57;96324.34;;;15.18;100.00
64610;BME280;51019;46.090;6.350;2023-08-31T02:40:25;96322.22;;;14.90;100.00
64610;BME280;51019;46.090;6.350;2023-08-31T02:42:51;96316.25;;;15.19;100.00
64610;BME280;51019;46.090;6.350;2023-08-31T02:45:18;96317.94;;;15.12;100.00
64610;BME280;51019;46.090;6.350;2023-08-31T02:47:46;96285.88;;;15.01;100.00
64610;BME280;51019;46.090;6.350;2023-08-31T02:50:16;96307.91;;;14.85;100.00
64610;BME280;51019;46.090;6.350;2023-08-31T02:52:44;96319.84;;;14.73;100.00
64610;BME280;51019;46.090;6.350;2023-08-31T02:55:11;96271.31;;;14.82;100.00
64610;BME280;51019;46.090;6.350;2023-08-31T02:57:38;96318.97;;;15.34;100.00
64610;BME280;51019;46.090;6.350;2023-08-31T03:00:06;96321.81;;;15.47;100.00
64610;BME280;51019;46.090;6.350;2023-08-31T03:02:38;96315.34;;;15.50;100.00
64610;BME280;51019;46.090;6.350;2023-08-31T03:05:05;96319.72;;;15.66;100.00
64610;BME280;51019;46.090;6.350;2023-08-31T03:07:34;96317.59;;;15.61;100.00
64610;BME280;51019;46.090;6.350;2023-08-31T03:10:01;96321.81;;;15.47;100.00
64610;BME280;51019;46.090;6.350;2023-08-31T03:12:28;96308.59;;;15.47;100.00
64610;BME280;51019;46.090;6.350;2023-08-31T03:14:55;96297.28;;;15.61;100.00
64610;BME280;51019;46.090;6.350;2023-08-31T03:17:22;96306.25;;;15.75;100.00
64610;BME280;51019;46.090;6.350;2023-08-31T03:19:49;96292.84;;;15.77;100.00
64610;BME280;51019;46.090;6.350;2023-08-31T03:22:16;96310.72;;;15.89;100.00
64610;BME280;51019;46.090;6.350;2023-08-31T03:24:45;96324.75;;;15.75;100.00
64610;BME280;51019;46.090;6.350;2023-08-31T03:27:12;96317.63;;;15.53;100.00
64610;BME280;51019;46.090;6.350;2023-08-31T03:29:41;96326.75;;;15.27;100.00
64610;BME280;51019;46.090;6.350;2023-08-31T03:32:08;96321.81;;;15.02;100.00
64610;BME280;51019;46.090;6.350;2023-08-31T03:34:35;96332.63;;;15.15;100.00
64610;BME280;51019;46.090;6.350;2023-08-31T03:37:02;96236.41;;;14.49;100.00
64610;BME280;51019;46.090;6.350;2023-08-31T03:39:29;96344.16;;;15.14;100.00
64610;BME280;51019;46.090;6.350;2023-08-31T03:41:59;96332.63;;;15.15;100.00
64610;BME280;51019;46.090;6.350;2023-08-31T03:44:26;96336.38;;;15.20;100.00
64610;BME280;51019;46.090;6.350;2023-08-31T03:46:53;96340.91;;;15.35;100.00
64610;BME280;51019;46.090;6.350;2023-08-31T03:49:20;96286.75;;;14.93;100.00
64610;BME280;51019;46.090;6.350;2023-08-31T03:51:47;96325.69;;;15.37;100.00
64610;BME280;51019;46.090;6.350;2023-08-31T03:54:14;96346.13;;;15.43;100.00
64610;BME280;51019;46.090;6.350;2023-08-31T03:56:41;96348.84;;;15.35;100.00
64610;BME280;51019;46.090;6.350;2023-08-31T03:59:10;96350.00;;;15.32;100.00
64610;BME280;51019;46.090;6.350;2023-08-31T04:01:37;96346.34;;;15.10;100.00
64610;BME280;51019;46.090;6.350;2023-08-31T04:04:04;96345.34;;;15.11;100.00
64610;BME280;51019;46.090;6.350;2023-08-31T04:06:33;96347.59;;;15.22;100.00
64610;BME280;51019;46.090;6.350;2023-08-31T04:09:00;96327.69;;;14.89;100.00
64610;BME280;51019;46.090;6.350;2023-08-31T04:11:28;96345.34;;;15.11;100.00
64610;BME280;51019;46.090;6.350;2023-08-31T04:13:55;96326.88;;;14.80;100.00
64610;BME280;51019;46.090;6.350;2023-08-31T04:16:23;96347.69;;;15.06;100.00
64610;BME280;51019;46.090;6.350;2023-08-31T04:18:50;96348.81;;;15.12;100.00
64610;BME280;51019;46.090;6.350;2023-08-31T04:21:17;96284.25;;;14.69;100.00
64610;BME280;51019;46.090;6.350;2023-08-31T04:23:44;96352.56;;;15.17;100.00
64610;BME280;51019;46.090;6.350;2023-08-31T04:26:12;96347.59;;;15.22;100.00
64610;BME280;51019;46.090;6.350;2023-08-31T04:28:40;96359.81;;;15.23;100.00
64610;BME280;51019;46.090;6.350;2023-08-31T04:31:08;96356.50;;;14.99;100.00
64610;BME280;51019;46.090;6.350;2023-08-31T04:33:38;96360.47;;;15.17;100.00
64610;BME280;51019;46.090;6.350;2023-08-31T04:36:05;96354.13;;;14.73;100.00
64610;BME280;51019;46.090;6.350;2023-08-31T04:38:33;96338.91;;;14.83;100.00
64610;BME280;51019;46.090;6.350;2023-08-31T04:41:01;96347.88;;;14.74;100.00
64610;BME280;51019;46.090;6.350;2023-08-31T04:43:28;96344.41;;;14.73;100.00
64610;BME280;51019;46.090;6.350;2023-08-31T04:45:55;96343.41;;;14.74;100.00
64610;BME280;51019;46.090;6.350;2023-08-31T04:48:22;96362.38;;;14.78;100.00
64610;BME280;51019;46.090;6.350;2023-08-31T04:50:55;96372.38;;;14.35;100.00
64610;BME280;51019;46.090;6.350;2023-08-31T04:53:22;96374.56;;;14.40;100.00
64610;BME280;51019;46.090;6.350;2023-08-31T04:55:49;96378.00;;;14.32;100.00
64610;BME280;51019;46.090;6.350;2023-08-31T04:58:16;96339.56;;;13.99;100.00
64610;BME280;51019;46.090;6.350;2023-08-31T05:00:44;96381.97;;;14.28;100.00
64610;BME280;51019;46.090;6.350;2023-08-31T05:03:13;96382.63;;;14.30;100.00
64610;BME280;51019;46.090;6.350;2023-08-31T05:05:40;96396.13;;;14.43;100.00
64610;BME280;51019;46.090;6.350;2023-08-31T05:08:09;96390.75;;;14.68;100.00
64610;BME280;51019;46.090;6.350;2023-08-31T05:10:36;96404.50;;;14.94;100.00
64610;BME280;51019;46.090;6.350;2023-08-31T05:13:04;96405.41;;;15.09;100.00
64610;BME280;51019;46.090;6.350;2023-08-31T05:15:32;96410.03;;;15.07;100.00
64610;BME280;51019;46.090;6.350;2023-08-31T05:17:59;96347.22;;;14.72;100.00
64610;BME280;51019;46.090;6.350;2023-08-31T05:20:26;96412.13;;;15.20;100.00
64610;BME280;51019;46.090;6.350;2023-08-31T05:22:53;96410.91;;;15.31;100.00
64610;BME280;51019;46.090;6.350;2023-08-31T05:25:22;96415.25;;;15.23;100.00
64610;BME280;51019;46.090;6.350;2023-08-31T05:27:48;96395.94;;;15.23;100.00
64610;BME280;51019;46.090;6.350;2023-08-31T05:30:16;96412.13;;;15.43;100.00
64610;BME280;51019;46.090;6.350;2023-08-31T05:32:43;96424.84;;;15.16;100.00
64610;BME280;51019;46.090;6.350;2023-08-31T05:35:10;96416.03;;;14.93;100.00
64610;BME280;51019;46.090;6.350;2023-08-31T05:37:37;96384.97;;;14.72;100.00
64610;BME280;51019;46.090;6.350;2023-08-31T05:40:05;96409.44;;;14.97;100.00
64610;BME280;51019;46.090;6.350;2023-08-31T05:42:37;96430.22;;;14.92;100.00
64610;BME280;51019;46.090;6.350;2023-08-31T05:45:05;96431.09;;;15.23;100.00
64610;BME280;51019;46.090;6.350;2023-08-31T05:47:32;96436.25;;;15.40;100.00
64610;BME280;51019;46.090;6.350;2023-08-31T05:50:00;96409.69;;;15.10;100.00
64610;BME280;51019;46.090;6.350;2023-08-31T05:52:27;96435.66;;;15.30;100.00
64610;BME280;51019;46.090;6.350;2023-08-31T05:54:54;96438.28;;;15.30;100.00
64610;BME280;51019;46.090;6.350;2023-08-31T05:57:22;96445.31;;;15.45;100.00
64610;BME280;51019;46.090;6.350;2023-08-31T05:59:51;96447.63;;;15.40;100.00
64610;BME280;51019;46.090;6.350;2023-08-31T06:02:18;96434.13;;;15.35;100.00
64610;BME280;51019;46.090;6.350;2023-08-31T06:04:45;96442.06;;;15.66;100.00
64610;BME280;51019;46.090;6.350;2023-08-31T06:07:12;96442.00;;;15.43;100.00
64610;BME280;51019;46.090;6.350;2023-08-31T06:09:39;96443.94;;;15.57;100.00
64610;BME280;51019;46.090;6.350;2023-08-31T06:12:06;96435.72;;;15.75;100.00
64610;BME280;51019;46.090;6.350;2023-08-31T06:14:33;96441.22;;;15.88;100.00
64610;BME280;51019;46.090;6.350;2023-08-31T06:17:02;96426.06;;;15.82;100.00
64610;BME280;51019;46.090;6.350;2023-08-31T06:19:30;96435.38;;;15.78;100.00
64610;BME280;51019;46.090;6.350;2023-08-31T06:21:57;96423.81;;;15.56;100.00
64610;BME280;51019;46.090;6.350;2023-08-31T06:24:24;96434.38;;;15.48;100.00
64610;BME280;51019;46.090;6.350;2023-08-31T06:26:51;96439.03;;;15.69;100.00
64610;BME280;51019;46.090;6.350;2023-08-31T06:29:20;96442.75;;;15.83;100.00
64610;BME280;51019;46.090;6.350;2023-08-31T06:31:47;96436.41;;;15.69;100.00
64610;BME280;51019;46.090;6.350;2023-08-31T06:34:16;96449.44;;;15.71;100.00
64610;BME280;51019;46.090;6.350;2023-08-31T06:36:43;96446.84;;;16.08;100.00
64610;BME280;51019;46.090;6.350;2023-08-31T06:39:10;96448.84;;;16.58;100.00
64610;BME280;51019;46.090;6.350;2023-08-31T06:41:37;96451.88;;;16.85;100.00
64610;BME280;51019;46.090;6.350;2023-08-31T06:44:04;96458.00;;;17.72;100.00
64610;BME280;51019;46.090;6.350;2023-08-31T06:46:31;96463.44;;;17.64;100.00
64610;BME280;51019;46.090;6.350;2023-08-31T06:49:03;96468.31;;;17.82;100.00
64610;BME280;51019;46.090;6.350;2023-08-31T06:51:32;96477.78;;;18.12;98.88
64610;BME280;51019;46.090;6.350;2023-08-31T06:54:00;96469.50;;;18.22;96.66
64610;BME280;51019;46.090;6.350;2023-08-31T06:56:32;96484.34;;;18.16;97.49
64610;BME280;51019;46.090;6.350;2023-08-31T06:59:01;96451.44;;;18.10;95.94
64610;BME280;51019;46.090;6.350;2023-08-31T07:01:28;96468.13;;;18.04;98.79
64610;BME280;51019;46.090;6.350;2023-08-31T07:03:55;96458.28;;;17.77;95.97
64610;BME280;51019;46.090;6.350;2023-08-31T07:06:22;96448.88;;;17.74;96.90
64610;BME280;51019;46.090;6.350;2023-08-31T07:08:51;96442.69;;;17.89;94.22
64610;BME280;51019;46.090;6.350;2023-08-31T07:11:18;96448.44;;;17.92;95.54
64610;BME280;51019;46.090;6.350;2023-08-31T07:13:45;96451.91;;;17.71;100.00
64610;BME280;51019;46.090;6.350;2023-08-31T07:16:13;96456.13;;;17.87;100.00
64610;BME280;51019;46.090;6.350;2023-08-31T07:18:40;96463.25;;;18.08;95.84
64610;BME280;51019;46.090;6.350;2023-08-31T07:21:08;96469.00;;;18.11;93.73
64610;BME280;51019;46.090;6.350;2023-08-31T07:23:35;96469.88;;;18.19;92.66
64610;BME280;51019;46.090;6.350;2023-08-31T07:26:04;96468.63;;;18.14;90.30
64610;BME280;51019;46.090;6.350;2023-08-31T07:28:31;96465.47;;;18.26;92.22
64610;BME280;51019;46.090;6.350;2023-08-31T07:31:02;96471.88;;;18.38;88.84
64610;BME280;51019;46.090;6.350;2023-08-31T07:33:30;96460.06;;;18.68;87.10
64610;BME280;51019;46.090;6.350;2023-08-31T07:35:58;96467.41;;;18.66;87.91
64610;BME280;51019;46.090;6.350;2023-08-31T07:38:25;96473.97;;;18.70;86.17
64610;BME280;51019;46.090;6.350;2023-08-31T07:40:52;96478.41;;;18.63;86.79
64610;BME280;51019;46.090;6.350;2023-08-31T07:43:21;96477.94;;;18.88;87.30
64610;BME280;51019;46.090;6.350;2023-08-31T07:45:49;96485.00;;;18.46;93.98
64610;BME280;51019;46.090;6.350;2023-08-31T07:48:17;96490.34;;;18.52;90.55
64610;BME280;51019;46.090;6.350;2023-08-31T07:50:45;96490.28;;;18.67;89.07
64610;BME280;51019;46.090;6.350;2023-08-31T07:53:12;96496.13;;;18.84;89.40
64610;BME280;51019;46.090;6.350;2023-08-31T07:55:39;96511.75;;;19.00;89.53
64610;BME280;51019;46.090;6.350;2023-08-31T07:58:07;96521.59;;;19.06;89.45
64610;BME280;51019;46.090;6.350;2023-08-31T08:00:36;96518.94;;;19.06;90.95
64610;BME280;51019;46.090;6.350;2023-08-31T08:03:03;96512.09;;;19.25;86.86
64610;BME280;51019;46.090;6.350;2023-08-31T08:05:30;96522.25;;;19.15;89.17
64610;BME280;51019;46.090;6.350;2023-08-31T08:07:57;96521.25;;;19.16;90.17
64610;BME280;51019;46.090;6.350;2023-08-31T08:10:25;96527.41;;;19.23;91.66
64610;BME280;51019;46.090;6.350;2023-08-31T08:12:52;96539.41;;;19.19;89.34
64610;BME280;51019;46.090;6.350;2023-08-31T08:15:21;96536.66;;;18.99;87.37
64610;BME280;51019;46.090;6.350;2023-08-31T08:17:50;96538.66;;;19.25;82.48
64610;BME280;51019;46.090;6.350;2023-08-31T08:20:19;96532.41;;;19.39;82.34
64610;BME280;51019;46.090;6.350;2023-08-31T08:22:46;96535.75;;;19.54;84.45
64610;BME280;51019;46.090;6.350;2023-08-31T08:25:15;96533.63;;;19.02;80.05
64610;BME280;51019;46.090;6.350;2023-08-31T08:27:42;96536.00;;;19.32;82.43
64610;BME280;51019;46.090;6.350;2023-08-31T08:30:09;96528.66;;;19.27;78.29
64610;BME280;51019;46.090;6.350;2023-08-31T08:32:36;96533.56;;;19.30;78.72
64610;BME280;51019;46.090;6.350;2023-08-31T08:35:06;96532.31;;;19.26;78.08
64610;BME280;51019;46.090;6.350;2023-08-31T08:37:34;96534.53;;;19.57;77.48
64610;BME280;51019;46.090;6.350;2023-08-31T08:40:01;96531.28;;;19.62;78.66
64610;BME280;51019;46.090;6.350;2023-08-31T08:42:30;96537.31;;;19.90;78.30
64610;BME280;51019;46.090;6.350;2023-08-31T08:44:58;96531.50;;;19.67;74.40
64610;BME280;51019;46.090;6.350;2023-08-31T08:47:25;96533.75;;;20.44;69.75
64610;BME280;51019;46.090;6.350;2023-08-31T08:49:53;96537.66;;;20.74;68.58
64610;BME280;51019;46.090;6.350;2023-08-31T08:52:23;96533.09;;;21.08;67.75
64610;BME280;51019;46.090;6.350;2023-08-31T08:54:50;96528.59;;;20.95;65.79
64610;BME280;51019;46.090;6.350;2023-08-31T08:57:18;96524.63;;;19.92;71.25
64610;BME280;51019;46.090;6.350;2023-08-31T08:59:45;96531.47;;;21.00;67.46
64610;BME280;51019;46.090;6.350;2023-08-31T09:02:13;96531.28;;;21.72;61.73
64610;BME280;51019;46.090;6.350;2023-08-31T09:04:40;96543.06;;;21.96;61.92
64610;BME280;51019;46.090;6.350;2023-08-31T09:07:06;96545.94;;;21.95;60.03
64610;BME280;51019;46.090;6.350;2023-08-31T09:09:48;96542.03;;;21.53;58.66
64610;BME280;51019;46.090;6.350;2023-08-31T09:12:16;96550.88;;;21.40;61.21
64610;BME280;51019;46.090;6.350;2023-08-31T09:14:57;96542.25;;;21.96;58.82
64610;BME280;51019;46.090;6.350;2023-08-31T09:17:25;96544.03;;;21.57;59.25
64610;BME280;51019;46.090;6.350;2023-08-31T09:19:59;96533.97;;;21.66;61.05
64610;BME280;51019;46.090;6.350;2023-08-31T09:22:29;96536.25;;;22.07;58.13
64610;BME280;51019;46.090;6.350;2023-08-31T09:24:57;96511.03;;;22.03;58.53
64610;BME280;51019;46.090;6.350;2023-08-31T09:27:25;96541.63;;;21.49;58.86
64610;BME280;51019;46.090;6.350;2023-08-31T09:29:54;96534.63;;;22.37;58.57
64610;BME280;51019;46.090;6.350;2023-08-31T09:32:21;96549.25;;;23.09;56.63
64610;BME280;51019;46.090;6.350;2023-08-31T09:34:48;96540.03;;;23.05;56.00
64610;BME280;51019;46.090;6.350;2023-08-31T09:37:16;96511.94;;;22.22;57.15
64610;BME280;51019;46.090;6.350;2023-08-31T09:39:44;96531.69;;;22.14;57.48
64610;BME280;51019;46.090;6.350;2023-08-31T09:42:13;96535.84;;;22.10;55.94
64610;BME280;51019;46.090;6.350;2023-08-31T09:44:41;96537.84;;;22.77;54.54
64610;BME280;51019;46.090;6.350;2023-08-31T09:47:09;96529.03;;;22.95;53.12
64610;BME280;51019;46.090;6.350;2023-08-31T09:49:38;96529.28;;;22.37;55.91
64610;BME280;51019;46.090;6.350;2023-08-31T09:52:09;96522.34;;;21.92;56.02
64610;BME280;51019;46.090;6.350;2023-08-31T09:54:37;96526.31;;;23.02;51.81
64610;BME280;51019;46.090;6.350;2023-08-31T09:57:05;96519.91;;;22.28;51.15
64610;BME280;51019;46.090;6.350;2023-08-31T09:59:34;96527.97;;;23.21;50.79
64610;BME280;51019;46.090;6.350;2023-08-31T10:02:01;96523.53;;;23.51;51.95
64610;BME280;51019;46.090;6.350;2023-08-31T10:04:29;96522.97;;;23.06;51.62
64610;BME280;51019;46.090;6.350;2023-08-31T10:06:58;96519.69;;;23.96;52.67
64610;BME280;51019;46.090;6.350;2023-08-31T10:09:26;96524.88;;;23.79;49.39
64610;BME280;51019;46.090;6.350;2023-08-31T10:11:55;96526.19;;;24.48;49.08
64610;BME280;51019;46.090;6.350;2023-08-31T10:14:22;96526.91;;;23.95;52.06
64610;BME280;51019;46.090;6.350;2023-08-31T10:16:52;96531.16;;;23.11;50.76
64610;BME280;51019;46.090;6.350;2023-08-31T10:19:20;96527.13;;;24.65;48.80
64610;BME280;51019;46.090;6.350;2023-08-31T10:21:47;96533.19;;;23.52;50.80
64610;BME280;51019;46.090;6.350;2023-08-31T10:24:14;96524.97;;;24.02;50.37
64610;BME280;51019;46.090;6.350;2023-08-31T10:26:41;96524.41;;;24.42;49.81
64610;BME280;51019;46.090;6.350;2023-08-31T10:29:25;96525.19;;;24.95;49.25
64610;BME280;51019;46.090;6.350;2023-08-31T10:32:00;96532.34;;;24.48;48.83
64610;BME280;51019;46.090;6.350;2023-08-31T10:34:34;96522.25;;;23.17;50.66
64610;BME280;51019;46.090;6.350;2023-08-31T10:37:19;96530.78;;;23.08;51.79
64610;BME280;51019;46.090;6.350;2023-08-31T10:39:48;96514.63;;;22.78;51.79
64610;BME280;51019;46.090;6.350;2023-08-31T10:42:15;96523.97;;;24.56;48.70
64610;BME280;51019;46.090;6.350;2023-08-31T10:44:42;96524.34;;;23.34;50.39
64610;BME280;51019;46.090;6.350;2023-08-31T10:47:12;96518.41;;;24.70;49.13
64610;BME280;51019;46.090;6.350;2023-08-31T10:49:50;96524.63;;;23.26;51.13
64610;BME280;51019;46.090;6.350;2023-08-31T10:52:19;96514.31;;;23.66;50.29
64610;BME280;51019;46.090;6.350;2023-08-31T10:54:47;96501.16;;;24.89;47.44
64610;BME280;51019;46.090;6.350;2023-08-31T10:57:14;96509.09;;;25.19;48.23
64610;BME280;51019;46.090;6.350;2023-08-31T10:59:44;96491.09;;;25.43;46.46
64610;BME280;51019;46.090;6.350;2023-08-31T11:02:33;96509.81;;;25.14;47.36
64610;BME280;51019;46.090;6.350;2023-08-31T11:05:01;96510.38;;;24.81;46.54
64610;BME280;51019;46.090;6.350;2023-08-31T11:07:31;96498.66;;;25.57;48.22
64610;BME280;51019;46.090;6.350;2023-08-31T11:10:14;96488.72;;;24.94;47.14
64610;BME280;51019;46.090;6.350;2023-08-31T11:12:43;96488.47;;;25.83;45.69
64610;BME280;51019;46.090;6.350;2023-08-31T11:15:14;96489.13;;;25.61;45.68
64610;BME280;51019;46.090;6.350;2023-08-31T11:17:43;96488.81;;;24.88;46.22
64610;BME280;51019;46.090;6.350;2023-08-31T11:20:14;96480.00;;;23.93;47.48
64610;BME280;51019;46.090;6.350;2023-08-31T11:22:43;96480.00;;;25.62;46.72
64610;BME280;51019;46.090;6.350;2023-08-31T11:25:11;96485.94;;;25.53;45.47
64610;BME280;51019;46.090;6.350;2023-08-31T11:27:39;96483.97;;;26.17;45.88
64610;BME280;51019;46.090;6.350;2023-08-31T11:30:12;96489.63;;;25.75;43.57
64610;BME280;51019;46.090;6.350;2023-08-31T11:32:46;96481.50;;;25.70;42.29
64610;BME280;51019;46.090;6.350;2023-08-31T11:35:14;96487.44;;;27.13;40.81
64610;BME280;51019;46.090;6.350;2023-08-31T11:37:42;96473.59;;;25.40;45.65
64610;BME280;51019;46.090;6.350;2023-08-31T11:40:10;96483.78;;;26.35;43.08
64610;BME280;51019;46.090;6.350;2023-08-31T11:42:37;96483.97;;;26.17;45.47
64610;BME280;51019;46.090;6.350;2023-08-31T11:45:07;96496.41;;;25.26;44.50
64610;BME280;51019;46.090;6.350;2023-08-31T11:47:35;96492.56;;;26.02;43.39
64610;BME280;51019;46.090;6.350;2023-08-31T11:50:05;96487.06;;;24.58;46.35
64610;BME280;51019;46.090;6.350;2023-08-31T11:52:33;96490.53;;;25.92;46.23
64610;BME280;51019;46.090;6.350;2023-08-31T11:55:00;96486.94;;;26.32;43.21
64610;BME280;51019;46.090;6.350;2023-08-31T11:57:28;96478.34;;;26.47;44.47
64610;BME280;51019;46.090;6.350;2023-08-31T11:59:55;96475.97;;;26.84;41.17
64610;BME280;51019;46.090;6.350;2023-08-31T12:02:22;96493.19;;;27.21;41.55
64610;BME280;51019;46.090;6.350;2023-08-31T12:04:49;96483.22;;;26.83;42.20
64610;BME280;51019;46.090;6.350;2023-08-31T12:07:18;96499.31;;;26.33;44.55
64610;BME280;51019;46.090;6.350;2023-08-31T12:09:46;96474.66;;;25.91;45.30
64610;BME280;51019;46.090;6.350;2023-08-31T12:12:14;96485.91;;;26.50;43.29
64610;BME280;51019;46.090;6.350;2023-08-31T12:14:43;96498.13;;;26.41;43.52
64610;BME280;51019;46.090;6.350;2023-08-31T12:17:10;96492.91;;;26.67;44.64
64610;BME280;51019;46.090;6.350;2023-08-31T12:19:38;96496.50;;;27.06;43.20
64610;BME280;51019;46.090;6.350;2023-08-31T12:22:06;96499.41;;;26.88;42.87
64610;BME280;51019;46.090;6.350;2023-08-31T12:24:40;96491.63;;;26.70;43.94
64610;BME280;51019;46.090;6.350;2023-08-31T12:27:07;96500.50;;;27.04;41.99
64610;BME280;51019;46.090;6.350;2023-08-31T12:29:34;96497.06;;;26.92;42.88
64610;BME280;51019;46.090;6.350;2023-08-31T12:32:02;96500.22;;;26.10;45.73
64610;BME280;51019;46.090;6.350;2023-08-31T12:34:30;96474.97;;;25.66;45.00
64610;BME280;51019;46.090;6.350;2023-08-31T12:36:57;96499.31;;;24.89;45.44
64610;BME280;51019;46.090;6.350;2023-08-31T12:39:27;96499.44;;;24.83;45.99
64610;BME280;51019;46.090;6.350;2023-08-31T12:41:55;96497.97;;;26.47;43.43
64610;BME280;51019;46.090;6.350;2023-08-31T12:44:23;96499.66;;;26.87;42.39
64610;BME280;51019;46.090;6.350;2023-08-31T12:46:51;96497.53;;;25.93;43.27
64610;BME280;51019;46.090;6.350;2023-08-31T12:49:18;96491.41;;;26.26;43.32
64610;BME280;51019;46.090;6.350;2023-08-31T12:51:48;96489.13;;;25.61;43.48
64610;BME280;51019;46.090;6.350;2023-08-31T12:54:16;96492.31;;;24.77;47.28
64610;BME280;51019;46.090;6.350;2023-08-31T12:56:43;96486.91;;;26.60;41.93
64610;BME280;51019;46.090;6.350;2023-08-31T12:59:12;96487.00;;;27.59;39.22
64610;BME280;51019;46.090;6.350;2023-08-31T13:01:39;96497.31;;;27.07;40.49